Terminal Aerodrome Forecast
Issued by NWS

Current Version | Previous Version | Text Only | Print | Product List | Glossary Off
Versions: 1 2 3 4 5 6 7 8 9 10 11 12 13 14 15 16 17 18 19

878
FTUS41 KILN 030327 AAC
TAFLUK
TAF AMD
KLUK 030327Z 0303/0324 17014G24KT 4SM -SHRA BR VCTS OVC035CB
      WS020/19055KT
      TEMPO 0303/0307 2SM -SHRA OVC025
     FM030900 18016G26KT 5SM BR VCSH OVC015
     FM031200 21012G22KT P6SM BKN025
     FM031400 24014G24KT P6SM SCT035
     FM031900 25016G26KT P6SM BKN035=

USA.gov is the U.S. government's official web portal to all federal, state and local government web resources and services.